Time;durP1;ratioP1;P1;durP2;ratioP2;P2;SDS_P1;SDS_P2;PMS_P1;PMS_P2;Temp;Humidity;BMP_temperature;BMP_pressure;BME280_temperature;BME280_humidity;BME280_pressure;Samples;Min_cycle;Max_cycle;Signal;HPM_P1;HPM_P2
2023/10/26 00:00:31;;;;;;;8.98;4.60;;;20.20;66.80;;;;;;5133633;27;20023;-46
2023/10/26 00:02:57;;;;;;;10.75;4.25;;;20.20;66.80;;;;;;5133917;27;20030;-49
2023/10/26 00:05:24;;;;;;;10.70;4.18;;;20.20;67.00;;;;;;5133909;27;20027;-48
2023/10/26 00:07:50;;;;;;;17.08;4.75;;;20.20;67.00;;;;;;5133979;27;20028;-47
2023/10/26 00:10:16;;;;;;;9.98;4.40;;;20.20;67.20;;;;;;5133725;27;20435;-47
2023/10/26 00:12:42;;;;;;;13.73;4.60;;;20.30;67.00;;;;;;5133756;27;20538;-48
2023/10/26 00:15:08;;;;;;;8.93;4.22;;;20.20;67.00;;;;;;5133689;27;20106;-47
2023/10/26 00:17:34;;;;;;;7.75;4.18;;;20.20;66.90;;;;;;5133625;27;20395;-48
2023/10/26 00:20:00;;;;;;;8.48;4.25;;;20.20;66.90;;;;;;5132573;27;20031;-46
2023/10/26 00:22:28;;;;;;;10.55;4.65;;;20.20;66.90;;;;;;5133145;27;20054;-48
2023/10/26 00:24:54;;;;;;;9.95;4.88;;;20.20;67.00;;;;;;5133499;27;20023;-46
2023/10/26 00:27:19;;;;;;;8.57;4.10;;;20.20;67.00;;;;;;5133620;27;20028;-47
2023/10/26 00:29:45;;;;;;;7.07;3.75;;;20.20;67.00;;;;;;5133306;27;20027;-47
2023/10/26 00:32:11;;;;;;;9.95;4.75;;;20.20;67.20;;;;;;5131774;27;20482;-46
2023/10/26 00:34:37;;;;;;;8.10;4.60;;;20.20;67.10;;;;;;5132148;27;20074;-49
2023/10/26 00:37:03;;;;;;;9.00;4.30;;;20.20;67.10;;;;;;5133213;27;20486;-46
2023/10/26 00:39:29;;;;;;;6.70;3.92;;;20.20;67.20;;;;;;5132754;27;20039;-49
2023/10/26 00:41:55;;;;;;;8.68;4.53;;;20.20;67.00;;;;;;5132763;27;20063;-51
2023/10/26 00:44:22;;;;;;;11.00;4.40;;;20.20;67.20;;;;;;5133186;27;20410;-52
2023/10/26 00:46:50;;;;;;;5.72;3.92;;;20.20;67.10;;;;;;5132990;27;20035;-47
2023/10/26 00:49:17;;;;;;;8.25;4.60;;;20.20;67.10;;;;;;5131895;27;20474;-49
2023/10/26 00:51:50;;;;;;;8.52;4.30;;;20.20;67.20;;;;;;5132661;27;20023;-46
2023/10/26 00:54:19;;;;;;;9.10;4.35;;;20.20;67.30;;;;;;5133114;27;20450;-49
2023/10/26 00:56:49;;;;;;;9.97;4.30;;;20.20;67.20;;;;;;5132962;27;20023;-50
2023/10/26 00:59:16;;;;;;;5.78;3.88;;;20.20;67.00;;;;;;5132846;27;20550;-47
2023/10/26 01:01:45;;;;;;;6.25;4.05;;;20.20;67.10;;;;;;5132623;27;20029;-50
2023/10/26 01:04:14;;;;;;;8.97;3.97;;;20.20;67.00;;;;;;5132983;27;20031;-47
2023/10/26 01:06:44;;;;;;;7.40;4.20;;;20.20;67.10;;;;;;5132737;27;20272;-48
2023/10/26 01:09:10;;;;;;;7.35;4.07;;;20.20;67.20;;;;;;5132765;27;20094;-49
2023/10/26 01:11:38;;;;;;;6.10;3.80;;;20.20;67.90;;;;;;5132800;27;20049;-47
2023/10/26 01:14:05;;;;;;;7.93;4.25;;;20.20;67.50;;;;;;5132709;27;20026;-47
2023/10/26 01:16:31;;;;;;;6.97;3.97;;;20.20;67.50;;;;;;5132678;27;20420;-49
2023/10/26 01:19:01;;;;;;;6.85;3.90;;;20.20;67.40;;;;;;5131454;27;20023;-52
2023/10/26 01:21:27;;;;;;;8.80;4.18;;;20.20;67.80;;;;;;5132309;27;20478;-49
2023/10/26 01:23:53;;;;;;;7.45;3.88;;;20.20;67.30;;;;;;5132676;27;20436;-48
2023/10/26 01:26:19;;;;;;;6.80;3.80;;;20.20;67.40;;;;;;5131444;27;20027;-49
2023/10/26 01:28:45;;;;;;;7.20;3.88;;;20.20;67.60;;;;;;5132508;28;20019;-49
2023/10/26 01:31:16;;;;;;;8.27;4.20;;;20.20;67.40;;;;;;5132017;27;20049;-48
2023/10/26 01:33:43;;;;;;;8.10;4.00;;;20.20;68.20;;;;;;5132580;27;20100;-51
2023/10/26 01:36:08;;;;;;;7.63;4.05;;;20.20;67.80;;;;;;5131331;28;20072;-53
2023/10/26 01:38:35;;;;;;;8.15;4.10;;;20.20;67.40;;;;;;5131180;28;20027;-53
2023/10/26 01:41:01;;;;;;;5.65;3.45;;;20.20;67.20;;;;;;5131891;27;20035;-46
2023/10/26 01:43:29;;;;;;;8.85;4.43;;;20.20;67.90;;;;;;5132371;27;20504;-49
2023/10/26 01:45:55;;;;;;;6.40;3.78;;;20.20;67.50;;;;;;5131155;28;20065;-52
2023/10/26 01:48:23;;;;;;;7.55;3.90;;;20.20;68.20;;;;;;5131238;28;20062;-54
2023/10/26 01:50:49;;;;;;;6.57;3.83;;;20.20;68.90;;;;;;5131836;27;20110;-53
2023/10/26 01:53:15;;;;;;;10.38;4.00;;;20.20;67.50;;;;;;5134505;27;20047;-52
2023/10/26 01:55:41;;;;;;;6.88;3.80;;;20.20;69.00;;;;;;5135275;27;20070;-49
2023/10/26 01:58:07;;;;;;;6.55;4.00;;;20.20;68.90;;;;;;5135228;27;20390;-50
2023/10/26 02:00:32;;;;;;;6.82;4.00;;;20.20;68.40;;;;;;5134685;27;20022;-47
2023/10/26 02:02:58;;;;;;;7.10;4.00;;;20.20;68.00;;;;;;5136237;27;20119;-49
2023/10/26 02:05:25;;;;;;;5.85;3.55;;;20.20;68.70;;;;;;5134975;27;20482;-47
2023/10/26 02:07:50;;;;;;;4.57;3.50;;;20.20;69.00;;;;;;5134953;27;20023;-47
2023/10/26 02:10:18;;;;;;;4.78;3.58;;;20.10;68.30;;;;;;5135878;27;20478;-48
2023/10/26 02:12:45;;;;;;;7.53;3.40;;;20.10;68.60;;;;;;5135952;27;20019;-46
2023/10/26 02:15:13;;;;;;;6.13;3.80;;;20.20;67.90;;;;;;5134857;27;20026;-46
2023/10/26 02:17:39;;;;;;;6.40;3.88;;;20.20;68.40;;;;;;5134905;27;20030;-46
2023/10/26 02:20:06;;;;;;;16.00;3.90;;;20.10;68.10;;;;;;5134782;27;20054;-47
2023/10/26 02:22:32;;;;;;;8.15;3.88;;;20.10;69.00;;;;;;5135589;27;20088;-49
2023/10/26 02:24:58;;;;;;;7.78;3.53;;;20.10;68.60;;;;;;5136138;27;20068;-46
2023/10/26 02:27:23;;;;;;;5.60;3.60;;;20.10;69.20;;;;;;5134686;27;20023;-51
2023/10/26 02:29:49;;;;;;;7.35;3.72;;;20.10;68.40;;;;;;5135974;27;20078;-54
2023/10/26 02:32:16;;;;;;;7.47;3.42;;;20.10;69.30;;;;;;5134159;27;20110;-54
2023/10/26 02:34:42;;;;;;;7.07;3.75;;;20.10;68.60;;;;;;5117455;27;20034;-53
2023/10/26 02:37:08;;;;;;;5.88;3.72;;;20.10;68.60;;;;;;5135746;27;20035;-54
2023/10/26 02:39:34;;;;;;;7.20;3.63;;;20.10;68.30;;;;;;5134388;27;20418;-54
2023/10/26 02:42:00;;;;;;;10.98;3.50;;;20.10;69.10;;;;;;5135183;27;20134;-54
2023/10/26 02:44:25;;;;;;;5.65;3.47;;;20.10;68.90;;;;;;5134264;27;20023;-50
2023/10/26 02:46:51;;;;;;;5.85;3.40;;;20.10;68.50;;;;;;5135498;27;20024;-52
2023/10/26 02:49:17;;;;;;;6.00;3.60;;;20.10;69.20;;;;;;5134055;27;20031;-50
2023/10/26 02:51:44;;;;;;;6.72;3.45;;;20.10;68.90;;;;;;5133651;27;20031;-49
2023/10/26 02:54:10;;;;;;;5.25;3.20;;;20.10;69.40;;;;;;5134103;27;20025;-53
2023/10/26 02:56:36;;;;;;;5.38;3.50;;;20.10;69.60;;;;;;5135357;27;20027;-52
2023/10/26 02:59:01;;;;;;;5.35;3.53;;;20.10;68.80;;;;;;5134153;27;20110;-54
2023/10/26 03:01:34;;;;;;;5.70;3.45;;;20.10;68.90;;;;;;5134960;27;20027;-53
2023/10/26 03:04:04;;;;;;;7.15;3.40;;;20.10;68.40;;;;;;5133462;27;20031;-50
2023/10/26 03:06:36;;;;;;;5.63;3.45;;;20.10;67.80;;;;;;5135096;27;20546;-54
2023/10/26 03:09:03;;;;;;;5.95;3.65;;;20.10;69.40;;;;;;5135107;27;20023;-55
2023/10/26 03:11:29;;;;;;;5.90;3.75;;;20.10;70.00;;;;;;5133340;27;20031;-53
2023/10/26 03:13:55;;;;;;;6.70;3.38;;;20.10;69.10;;;;;;5133720;27;20069;-49
2023/10/26 03:16:21;;;;;;;6.05;3.58;;;20.10;69.30;;;;;;5135329;27;20057;-51
2023/10/26 03:18:46;;;;;;;6.07;3.50;;;20.10;70.20;;;;;;5134835;27;20031;-50
2023/10/26 03:21:14;;;;;;;5.25;3.20;;;20.10;69.30;;;;;;5134627;27;20027;-51
2023/10/26 03:23:40;;;;;;;5.10;3.25;;;20.10;69.30;;;;;;5134985;27;20106;-52
2023/10/26 03:26:09;;;;;;;7.15;3.67;;;20.10;69.30;;;;;;5134707;27;20099;-49
2023/10/26 03:28:35;;;;;;;5.15;3.40;;;20.10;69.40;;;;;;5134502;27;20042;-50
2023/10/26 03:31:01;;;;;;;5.07;3.55;;;20.10;69.80;;;;;;5134207;27;20035;-50
2023/10/26 03:33:27;;;;;;;6.38;3.33;;;20.10;69.10;;;;;;5134475;27;20015;-53
2023/10/26 03:35:53;;;;;;;6.63;3.40;;;20.10;69.00;;;;;;5133302;27;20023;-48
2023/10/26 03:38:18;;;;;;;4.78;3.20;;;20.10;68.70;;;;;;5133328;27;20074;-53
2023/10/26 03:40:44;;;;;;;5.28;3.22;;;20.10;68.20;;;;;;5134012;27;20039;-49
2023/10/26 03:43:10;;;;;;;5.13;2.85;;;20.10;67.90;;;;;;5133328;27;20374;-52
2023/10/26 03:45:36;;;;;;;5.43;3.10;;;20.20;67.90;;;;;;5134345;27;20046;-54
2023/10/26 03:48:01;;;;;;;6.75;3.70;;;20.20;67.70;;;;;;5134190;27;20027;-50
2023/10/26 03:50:27;;;;;;;4.65;3.38;;;20.20;68.40;;;;;;5132633;27;20034;-53
2023/10/26 03:52:53;;;;;;;5.47;3.25;;;20.20;67.90;;;;;;5133753;27;20097;-46
2023/10/26 03:55:19;;;;;;;4.75;3.20;;;20.20;67.70;;;;;;5134143;27;20027;-53
2023/10/26 03:57:48;;;;;;;6.32;3.75;;;20.10;67.60;;;;;;5134117;27;20486;-47
2023/10/26 04:00:15;;;;;;;5.00;3.40;;;20.20;67.60;;;;;;5132950;27;20030;-49
2023/10/26 04:02:41;;;;;;;6.40;3.72;;;20.20;67.90;;;;;;5134324;27;20042;-48
2023/10/26 04:05:07;;;;;;;5.32;3.30;;;20.20;67.80;;;;;;5133857;27;20031;-51
2023/10/26 04:07:33;;;;;;;6.32;3.60;;;20.20;68.00;;;;;;5133970;27;20102;-47
2023/10/26 04:09:59;;;;;;;6.18;3.30;;;20.20;68.40;;;;;;5133821;27;20035;-48
2023/10/26 04:12:25;;;;;;;4.38;3.00;;;20.20;69.50;;;;;;5133480;27;20398;-48
2023/10/26 04:14:51;;;;;;;4.53;3.03;;;20.20;69.50;;;;;;5132912;27;20378;-49
2023/10/26 04:17:17;;;;;;;5.07;3.25;;;20.20;69.00;;;;;;5133776;27;20016;-51
2023/10/26 04:19:42;;;;;;;5.53;3.35;;;20.20;68.80;;;;;;5133595;27;20049;-52
2023/10/26 04:22:08;;;;;;;7.32;3.50;;;20.20;68.90;;;;;;5133362;27;20023;-50
2023/10/26 04:24:34;;;;;;;6.00;3.45;;;20.20;68.30;;;;;;5133569;27;20019;-50
2023/10/26 04:27:00;;;;;;;5.57;3.15;;;20.20;69.20;;;;;;5133518;27;20487;-49
2023/10/26 04:29:26;;;;;;;6.20;3.92;;;20.20;69.00;;;;;;5133475;27;20027;-48
2023/10/26 04:31:51;;;;;;;4.05;3.35;;;20.20;68.90;;;;;;5132974;27;20054;-50
2023/10/26 04:34:17;;;;;;;5.07;3.45;;;20.20;68.50;;;;;;5133293;27;20026;-48
2023/10/26 04:36:43;;;;;;;3.97;3.03;;;20.20;68.70;;;;;;5133480;27;20015;-52
2023/10/26 04:39:09;;;;;;;5.97;3.65;;;20.20;68.50;;;;;;5133455;27;20110;-49
2023/10/26 04:41:36;;;;;;;5.65;3.70;;;20.20;68.90;;;;;;5132873;27;20035;-50
2023/10/26 04:44:05;;;;;;;5.82;3.60;;;20.20;67.80;;;;;;5133475;27;20087;-48
2023/10/26 04:46:31;;;;;;;4.82;3.25;;;20.20;68.10;;;;;;5133159;27;20033;-47
2023/10/26 04:48:57;;;;;;;5.78;3.80;;;20.20;68.70;;;;;;5133069;27;20110;-46
2023/10/26 04:51:22;;;;;;;5.70;3.60;;;20.20;68.70;;;;;;5132625;27;20102;-46
2023/10/26 04:53:49;;;;;;;6.88;3.80;;;20.20;67.80;;;;;;5133103;27;20106;-49
2023/10/26 04:56:15;;;;;;;5.35;3.53;;;20.20;67.50;;;;;;5133038;27;20023;-46
2023/10/26 04:58:43;;;;;;;8.02;3.75;;;20.20;67.60;;;;;;5132976;27;20031;-48
2023/10/26 05:01:09;;;;;;;6.32;3.63;;;20.20;68.00;;;;;;5132917;27;20158;-47
2023/10/26 05:03:35;;;;;;;5.78;3.67;;;20.20;67.80;;;;;;5132914;27;20533;-47
2023/10/26 05:06:01;;;;;;;5.97;3.70;;;20.20;67.70;;;;;;5132955;27;20027;-47
2023/10/26 05:08:27;;;;;;;7.13;3.95;;;20.20;67.30;;;;;;5132833;27;20121;-49
2023/10/26 05:10:52;;;;;;;8.18;4.05;;;20.20;67.90;;;;;;5132411;27;20069;-54
2023/10/26 05:13:18;;;;;;;8.10;4.07;;;20.20;67.60;;;;;;5132783;27;20149;-46
2023/10/26 05:15:44;;;;;;;8.75;4.20;;;20.20;68.20;;;;;;5131430;27;20094;-51
2023/10/26 05:18:10;;;;;;;6.80;3.90;;;20.20;69.30;;;;;;5132681;27;20518;-49
2023/10/26 05:20:37;;;;;;;5.70;3.88;;;20.20;68.30;;;;;;5132346;27;20509;-51
2023/10/26 05:23:05;;;;;;;6.43;3.92;;;20.20;68.80;;;;;;5132696;27;20406;-50
2023/10/26 05:25:31;;;;;;;7.63;4.22;;;20.20;68.30;;;;;;5132529;27;20050;-53
2023/10/26 05:27:57;;;;;;;5.57;3.70;;;20.20;67.90;;;;;;5132597;27;20031;-52
2023/10/26 05:30:23;;;;;;;7.25;3.90;;;20.20;68.40;;;;;;5132094;27;20031;-53
2023/10/26 05:32:48;;;;;;;10.23;4.05;;;20.20;68.60;;;;;;5132352;28;20033;-49
2023/10/26 05:35:14;;;;;;;6.25;3.80;;;20.20;68.30;;;;;;5132465;28;20026;-53
2023/10/26 05:37:40;;;;;;;6.93;4.20;;;20.20;67.70;;;;;;5132501;27;20039;-51
2023/10/26 05:40:06;;;;;;;7.68;4.28;;;20.20;68.10;;;;;;5132278;27;20113;-49
2023/10/26 05:42:32;;;;;;;7.07;4.25;;;20.20;67.40;;;;;;5132112;27;20053;-47
2023/10/26 05:44:58;;;;;;;6.50;4.10;;;20.20;67.80;;;;;;5147494;22;20035;-57
2023/10/26 05:47:24;;;;;;;6.88;3.40;;;20.20;68.30;;;;;;5111477;28;20016;-56
2023/10/26 05:49:49;;;;;;;12.25;3.60;;;20.20;68.20;;;;;;5111808;28;20108;-56
2023/10/26 05:52:15;;;;;;;9.55;4.25;;;20.20;70.10;;;;;;5111420;28;20027;-57
2023/10/26 05:54:44;;;;;;;9.02;5.80;;;20.20;69.10;;;;;;5111587;28;20386;-57
2023/10/26 05:57:10;;;;;;;50.78;6.95;;;20.10;66.70;;;;;;5111675;28;20028;-57
2023/10/26 05:59:35;;;;;;;17.33;5.80;;;20.10;65.30;;;;;;5111572;28;20036;-58
2023/10/26 06:02:02;;;;;;;29.17;7.25;;;19.90;63.50;;;;;;5111413;28;20020;-57
2023/10/26 06:04:28;;;;;;;11.93;6.00;;;19.90;63.00;;;;;;5111146;28;20040;-56
2023/10/26 06:06:53;;;;;;;8.02;5.65;;;19.80;64.20;;;;;;5111766;28;20034;-57
2023/10/26 06:09:19;;;;;;;8.98;6.05;;;19.70;61.70;;;;;;5111736;28;20028;-54
2023/10/26 06:11:45;;;;;;;16.30;5.60;;;19.60;61.60;;;;;;5111092;28;20027;-56
2023/10/26 06:14:11;;;;;;;14.63;5.60;;;19.60;61.70;;;;;;5111440;28;20391;-57
2023/10/26 06:16:37;;;;;;;16.42;6.30;;;19.70;62.30;;;;;;5111507;28;20008;-55
2023/10/26 06:19:03;;;;;;;13.52;5.72;;;19.60;62.00;;;;;;5111586;28;20023;-56
2023/10/26 06:21:28;;;;;;;10.32;5.25;;;19.60;62.20;;;;;;5111264;28;20027;-57
2023/10/26 06:23:54;;;;;;;9.00;5.38;;;19.50;61.90;;;;;;5111713;28;20102;-57
2023/10/26 06:26:20;;;;;;;11.43;5.25;;;19.60;62.30;;;;;;5111218;28;20031;-56
2023/10/26 06:28:49;;;;;;;8.25;5.70;;;19.50;62.10;;;;;;5111400;28;20028;-58
2023/10/26 06:31:15;;;;;;;11.15;5.50;;;19.50;62.00;;;;;;5111246;28;20479;-55
2023/10/26 06:33:41;;;;;;;8.30;4.72;;;19.40;61.50;;;;;;5111550;28;20034;-58
2023/10/26 06:36:08;;;;;;;12.30;4.70;;;19.50;62.00;;;;;;5120369;28;20443;-53
2023/10/26 06:38:35;;;;;;;11.55;5.10;;;19.70;62.80;;;;;;5133936;27;20023;-56
2023/10/26 06:41:00;;;;;;;8.13;4.25;;;19.70;62.60;;;;;;5135412;27;20039;-58
2023/10/26 06:43:26;;;;;;;12.65;4.50;;;19.80;62.60;;;;;;5135676;27;20517;-56
2023/10/26 18:46:56;;;;;;;10.85;5.20;;;19.90;66.10;;;;;;5090407;28;20818;-54
2023/10/26 18:49:22;;;;;;;11.00;6.15;;;20.20;68.30;;;;;;5070556;28;20032;-56
2023/10/26 18:51:48;;;;;;;13.52;5.80;;;20.20;69.60;;;;;;5070372;28;20217;-54
2023/10/26 18:54:13;;;;;;;12.32;6.03;;;20.30;70.00;;;;;;5070332;28;20021;-55
2023/10/26 18:56:40;;;;;;;14.68;6.53;;;20.30;69.60;;;;;;5068461;28;20555;-55
2023/10/26 18:59:06;;;;;;;15.10;7.38;;;20.30;70.50;;;;;;5069428;28;20025;-52
2023/10/26 19:01:32;;;;;;;10.70;6.88;;;20.30;70.60;;;;;;5092517;22;20053;-54
2023/10/26 19:03:57;;;;;;;13.45;6.90;;;20.30;70.90;;;;;;5068311;28;20064;-55
2023/10/26 19:06:23;;;;;;;13.32;6.53;;;20.30;70.90;;;;;;5068197;28;20055;-55
2023/10/26 19:08:49;;;;;;;16.42;6.75;;;20.30;71.20;;;;;;5068394;28;20411;-55
2023/10/26 19:11:16;;;;;;;10.23;6.03;;;20.30;71.10;;;;;;5068493;28;20116;-48
2023/10/26 19:13:42;;;;;;;11.60;6.68;;;20.30;71.10;;;;;;5068402;28;20067;-48
2023/10/26 19:16:07;;;;;;;13.85;7.18;;;20.30;70.90;;;;;;5067851;28;20032;-51
2023/10/26 19:18:34;;;;;;;11.05;7.00;;;20.30;71.80;;;;;;5068214;28;20074;-50
2023/10/26 19:21:00;;;;;;;10.38;6.85;;;20.30;71.80;;;;;;5067937;28;20445;-48
2023/10/26 19:23:25;;;;;;;10.23;6.43;;;20.30;71.80;;;;;;5068044;28;20103;-53
2023/10/26 19:25:51;;;;;;;10.48;6.18;;;20.30;72.10;;;;;;5067774;28;20151;-51
2023/10/26 19:28:17;;;;;;;11.20;6.07;;;20.30;71.70;;;;;;5068082;28;20051;-52
2023/10/26 19:30:43;;;;;;;10.50;6.45;;;20.30;70.80;;;;;;5067906;28;20020;-50
2023/10/26 19:33:09;;;;;;;11.15;5.95;;;20.30;71.00;;;;;;5067732;28;20052;-50
2023/10/26 19:35:34;;;;;;;14.15;5.88;;;20.30;71.50;;;;;;5067421;28;20550;-55
2023/10/26 19:38:00;;;;;;;10.30;5.70;;;20.30;71.40;;;;;;5067786;28;20075;-53
2023/10/26 19:40:26;;;;;;;9.95;5.57;;;20.30;70.70;;;;;;5067634;28;20028;-52
2023/10/26 19:42:52;;;;;;;9.13;5.68;;;20.30;70.50;;;;;;5067607;28;20039;-53
2023/10/26 19:45:18;;;;;;;10.38;6.05;;;20.30;70.70;;;;;;5067134;28;20112;-55
2023/10/26 19:47:44;;;;;;;8.25;5.75;;;20.30;70.40;;;;;;5054940;28;20435;-50
2023/10/26 19:50:10;;;;;;;11.18;5.57;;;20.30;70.70;;;;;;5053986;28;20059;-49
2023/10/26 19:52:36;;;;;;;14.00;6.15;;;20.30;70.50;;;;;;5054289;28;20035;-50
2023/10/26 19:55:03;;;;;;;8.55;5.65;;;20.30;70.30;;;;;;5053953;28;20484;-52
2023/10/26 19:57:30;;;;;;;10.80;5.93;;;20.30;70.30;;;;;;5054181;28;20108;-51
2023/10/26 19:59:56;;;;;;;9.63;5.53;;;20.30;69.90;;;;;;5053992;28;20108;-54
2023/10/26 20:02:21;;;;;;;9.52;5.40;;;20.30;70.30;;;;;;5054102;28;20033;-47
2023/10/26 20:04:47;;;;;;;14.07;5.80;;;20.30;69.30;;;;;;5054060;28;20432;-51
2023/10/26 20:07:13;;;;;;;14.93;6.43;;;20.30;69.80;;;;;;5053550;28;20025;-48
2023/10/26 20:09:40;;;;;;;13.77;5.93;;;20.30;69.40;;;;;;5053583;28;20021;-49
2023/10/26 20:12:06;;;;;;;18.48;5.95;;;20.30;69.40;;;;;;5053400;28;20392;-53
2023/10/26 20:14:32;;;;;;;19.05;5.90;;;20.30;69.20;;;;;;5053437;28;20082;-54
2023/10/26 20:16:59;;;;;;;10.35;5.80;;;20.30;69.20;;;;;;5053045;28;20108;-48
2023/10/26 20:19:25;;;;;;;13.27;6.00;;;20.30;69.30;;;;;;5053347;28;20025;-50
2023/10/26 20:21:51;;;;;;;11.95;5.40;;;20.20;69.10;;;;;;5053299;28;20021;-54
2023/10/26 20:24:17;;;;;;;16.88;6.38;;;20.20;69.20;;;;;;5053303;28;20049;-52
2023/10/26 20:26:43;;;;;;;15.65;6.35;;;20.20;69.00;;;;;;5052966;28;20021;-49
2023/10/26 20:29:13;;;;;;;10.35;5.97;;;20.20;69.00;;;;;;5053168;28;20028;-51
2023/10/26 20:31:40;;;;;;;10.98;6.35;;;20.20;68.90;;;;;;5053090;28;20021;-54
2023/10/26 20:34:05;;;;;;;12.90;6.40;;;20.20;68.90;;;;;;5052982;28;20017;-51
2023/10/26 20:36:31;;;;;;;11.65;6.30;;;20.10;68.80;;;;;;5052752;28;20028;-51
2023/10/26 20:38:58;;;;;;;10.93;6.20;;;20.10;68.70;;;;;;5053026;28;20052;-55
2023/10/26 20:41:23;;;;;;;12.25;6.68;;;20.20;68.80;;;;;;5052858;28;20025;-52
2023/10/26 20:43:49;;;;;;;11.50;5.63;;;20.20;68.60;;;;;;5052933;28;20075;-55
2023/10/26 20:46:18;;;;;;;11.27;5.57;;;20.10;68.50;;;;;;5052576;28;20075;-54
2023/10/26 20:48:44;;;;;;;14.57;6.07;;;20.10;68.40;;;;;;5052868;28;20711;-52
2023/10/26 20:51:12;;;;;;;10.13;6.10;;;20.10;68.40;;;;;;5050070;28;20032;-50
2023/10/26 20:53:39;;;;;;;13.77;6.38;;;20.10;68.30;;;;;;5052794;28;20113;-49
2023/10/26 20:56:06;;;;;;;9.98;6.25;;;20.10;68.20;;;;;;5052586;28;20075;-52
2023/10/26 20:58:33;;;;;;;12.32;6.18;;;20.20;68.30;;;;;;5049307;28;20021;-51
2023/10/26 21:01:10;;;;;;;11.57;6.22;;;20.10;68.20;;;;;;5052420;28;20025;-48
2023/10/26 21:03:36;;;;;;;10.93;6.50;;;20.20;68.20;;;;;;5050688;28;20061;-53
2023/10/26 21:06:04;;;;;;;16.55;6.30;;;20.10;68.00;;;;;;5052193;28;20025;-50
2023/10/26 21:08:30;;;;;;;12.02;6.22;;;20.10;68.00;;;;;;5049831;28;20020;-49
2023/10/26 21:10:58;;;;;;;10.00;6.15;;;20.10;67.90;;;;;;5052352;28;20028;-50
2023/10/26 21:13:24;;;;;;;12.32;6.35;;;20.10;67.80;;;;;;5052039;28;20037;-51
2023/10/26 21:15:50;;;;;;;11.82;6.60;;;20.20;67.90;;;;;;5052150;28;20058;-52
2023/10/26 21:18:16;;;;;;;9.88;6.10;;;20.10;67.70;;;;;;5052742;28;20025;-54
2023/10/26 21:20:41;;;;;;;11.05;6.30;;;20.10;67.70;;;;;;5052613;28;20025;-54
2023/10/26 21:23:07;;;;;;;9.85;5.93;;;20.20;67.70;;;;;;5052611;28;20028;-51
2023/10/26 21:25:33;;;;;;;10.25;6.03;;;20.10;67.60;;;;;;5052323;28;20020;-49
2023/10/26 21:28:00;;;;;;;11.80;6.05;;;20.20;67.60;;;;;;5052506;28;20127;-52
2023/10/26 21:30:26;;;;;;;9.50;6.00;;;20.20;67.60;;;;;;5052504;28;20110;-52
2023/10/26 21:32:52;;;;;;;11.90;6.45;;;20.20;67.60;;;;;;5052417;28;20046;-49
2023/10/26 21:35:18;;;;;;;8.05;5.93;;;20.10;67.50;;;;;;5052054;28;20446;-50
2023/10/26 21:37:43;;;;;;;8.48;5.63;;;20.20;67.50;;;;;;5052356;28;20060;-50
2023/10/26 21:40:11;;;;;;;10.52;6.60;;;20.10;67.40;;;;;;5052205;28;20024;-49
2023/10/26 21:42:37;;;;;;;14.05;6.88;;;20.20;67.50;;;;;;5052208;28;20554;-54
2023/10/26 21:45:04;;;;;;;11.48;5.97;;;20.20;67.50;;;;;;5052154;28;20025;-47
2023/10/26 21:47:30;;;;;;;11.23;6.90;;;20.10;67.30;;;;;;5052552;28;20029;-50
2023/10/26 21:49:56;;;;;;;11.73;6.57;;;20.10;67.40;;;;;;5052062;28;20027;-48
2023/10/26 21:52:22;;;;;;;11.15;6.35;;;20.10;67.20;;;;;;5052125;28;20025;-52
2023/10/26 21:54:47;;;;;;;9.20;6.43;;;20.20;67.30;;;;;;5052493;28;20032;-47
2023/10/26 21:57:13;;;;;;;12.27;6.75;;;20.10;67.30;;;;;;5051761;28;20047;-55
2023/10/26 21:59:39;;;;;;;10.70;6.78;;;20.10;67.20;;;;;;5051969;28;20500;-50
2023/10/26 22:02:07;;;;;;;11.10;6.38;;;20.10;67.30;;;;;;5051745;28;20496;-52
2023/10/26 22:04:33;;;;;;;10.10;6.28;;;20.10;67.40;;;;;;5051908;28;20444;-51
2023/10/26 22:06:59;;;;;;;10.88;6.45;;;20.10;67.30;;;;;;5051561;28;20043;-49
2023/10/26 22:09:25;;;;;;;14.55;6.80;;;20.10;67.40;;;;;;5051581;28;20028;-55
2023/10/26 22:11:51;;;;;;;9.77;6.45;;;20.10;67.40;;;;;;5051619;28;20035;-53
2023/10/26 22:14:17;;;;;;;12.20;6.55;;;20.10;67.60;;;;;;5051680;28;20102;-52
2023/10/26 22:16:43;;;;;;;18.05;7.07;;;20.10;67.60;;;;;;5051326;28;20029;-51
2023/10/26 22:19:09;;;;;;;11.95;6.80;;;20.10;67.60;;;;;;5051720;28;20053;-52
2023/10/26 22:21:35;;;;;;;11.50;6.40;;;20.10;67.60;;;;;;5051681;28;20060;-54
2023/10/26 22:24:01;;;;;;;14.68;6.88;;;20.10;67.60;;;;;;5051618;28;20029;-51
2023/10/26 22:26:27;;;;;;;9.10;6.18;;;20.10;67.70;;;;;;5051332;28;20541;-52
2023/10/26 22:28:53;;;;;;;9.80;6.13;;;20.10;67.70;;;;;;5051612;28;20029;-49
2023/10/26 22:31:19;;;;;;;10.15;6.07;;;20.10;67.60;;;;;;5051408;28;20021;-49
2023/10/26 22:33:46;;;;;;;10.30;6.35;;;20.10;67.50;;;;;;5051522;28;20021;-51
2023/10/26 22:36:12;;;;;;;10.20;6.40;;;20.10;67.50;;;;;;5051124;28;20025;-48
2023/10/26 22:38:39;;;;;;;10.88;6.63;;;20.10;67.70;;;;;;5051472;28;20025;-48
2023/10/26 22:41:10;;;;;;;10.15;6.38;;;20.10;67.60;;;;;;5051404;28;20069;-50
2023/10/26 22:43:37;;;;;;;10.75;6.68;;;20.10;67.40;;;;;;5051490;28;20032;-50
2023/10/26 22:46:03;;;;;;;10.90;6.30;;;20.10;67.40;;;;;;5051101;28;20051;-52
2023/10/26 22:48:29;;;;;;;12.02;6.85;;;20.10;67.60;;;;;;5051451;28;20029;-48
2023/10/26 22:50:59;;;;;;;12.35;6.50;;;20.10;67.60;;;;;;5051313;28;20079;-50
2023/10/26 22:53:25;;;;;;;10.63;6.75;;;20.10;67.80;;;;;;5051329;28;20036;-50
2023/10/26 22:55:51;;;;;;;11.10;6.40;;;20.10;67.50;;;;;;5050971;28;20040;-49
2023/10/26 22:58:18;;;;;;;16.25;6.28;;;20.00;67.50;;;;;;5050822;28;20048;-50
2023/10/26 23:00:44;;;;;;;12.13;6.78;;;20.10;67.70;;;;;;5050543;28;20400;-49
2023/10/26 23:03:10;;;;;;;13.00;7.10;;;20.10;68.00;;;;;;5048537;28;20464;-50
2023/10/26 23:05:40;;;;;;;10.63;6.53;;;20.10;67.60;;;;;;5050548;28;20021;-50
2023/10/26 23:08:10;;;;;;;12.00;6.13;;;20.10;67.70;;;;;;5032922;28;20032;-52
2023/10/26 23:10:36;;;;;;;9.38;6.10;;;20.10;68.30;;;;;;5050697;28;20115;-47
2023/10/26 23:13:02;;;;;;;14.23;6.38;;;20.10;68.30;;;;;;5050928;28;20032;-54
2023/10/26 23:15:28;;;;;;;11.52;6.65;;;20.10;68.00;;;;;;5050238;28;20504;-54
2023/10/26 23:17:54;;;;;;;10.75;6.38;;;20.10;67.90;;;;;;5050629;28;20017;-54
2023/10/26 23:20:20;;;;;;;13.70;6.55;;;20.10;67.80;;;;;;5050477;28;20032;-56
2023/10/26 23:22:45;;;;;;;12.95;6.63;;;20.00;68.00;;;;;;5053349;28;20048;-53
2023/10/26 23:25:11;;;;;;;10.60;6.28;;;20.10;68.10;;;;;;5054099;28;20025;-47
2023/10/26 23:27:37;;;;;;;11.25;6.90;;;20.10;68.40;;;;;;5054382;28;20559;-53
2023/10/26 23:30:06;;;;;;;12.25;6.25;;;20.10;67.90;;;;;;5054229;28;20028;-54
2023/10/26 23:32:32;;;;;;;12.20;6.43;;;20.00;67.90;;;;;;5051788;28;20025;-55
2023/10/26 23:34:57;;;;;;;17.17;6.47;;;20.10;68.70;;;;;;5053818;28;20029;-55
2023/10/26 23:37:23;;;;;;;10.85;6.50;;;20.00;67.80;;;;;;5054326;28;20032;-49
2023/10/26 23:39:49;;;;;;;11.10;6.07;;;20.00;68.20;;;;;;5054144;28;20071;-53
2023/10/26 23:42:15;;;;;;;10.63;6.30;;;20.00;68.50;;;;;;5054193;28;20027;-49
2023/10/26 23:44:40;;;;;;;11.70;6.80;;;20.10;68.40;;;;;;5053980;28;20025;-57
2023/10/26 23:47:06;;;;;;;10.07;6.20;;;20.00;68.40;;;;;;5053651;28;20496;-56
2023/10/26 23:49:32;;;;;;;13.18;6.97;;;20.00;68.30;;;;;;5053873;28;20431;-55
2023/10/26 23:51:58;;;;;;;9.75;5.90;;;20.10;68.10;;;;;;5053763;28;20466;-55
2023/10/26 23:54:25;;;;;;;11.27;6.55;;;20.00;68.40;;;;;;5053808;28;20080;-55
2023/10/26 23:56:51;;;;;;;9.35;6.40;;;20.10;68.00;;;;;;5050823;28;20017;-55
2023/10/26 23:59:17;;;;;;;12.98;6.80;;;20.10;67.70;;;;;;5054030;28;20047;-56
